sensor_id;sensor_type;location;lat;lon;timestamp;P1;durP1;ratioP1;P2;durP2;ratioP2
20067;SDS011;10194;50.824;7.134;2023-05-19T00:01:45;168.57;;;132.40;;
20067;SDS011;10194;50.824;7.134;2023-05-19T00:04:14;164.77;;;141.27;;
20067;SDS011;10194;50.824;7.134;2023-05-19T00:06:40;167.10;;;143.60;;
20067;SDS011;10194;50.824;7.134;2023-05-19T00:09:09;165.00;;;142.43;;
20067;SDS011;10194;50.824;7.134;2023-05-19T00:11:36;168.50;;;149.23;;
20067;SDS011;10194;50.824;7.134;2023-05-19T00:14:05;176.63;;;156.40;;
20067;SDS011;10194;50.824;7.134;2023-05-19T00:16:33;180.97;;;160.70;;
20067;SDS011;10194;50.824;7.134;2023-05-19T00:19:00;182.00;;;162.37;;
20067;SDS011;10194;50.824;7.134;2023-05-19T00:21:28;187.27;;;167.57;;
20067;SDS011;10194;50.824;7.134;2023-05-19T00:23:55;188.97;;;169.10;;
20067;SDS011;10194;50.824;7.134;2023-05-19T00:26:21;190.27;;;170.63;;
20067;SDS011;10194;50.824;7.134;2023-05-19T00:28:49;197.13;;;176.83;;
20067;SDS011;10194;50.824;7.134;2023-05-19T00:31:15;191.87;;;171.83;;
20067;SDS011;10194;50.824;7.134;2023-05-19T00:33:41;196.17;;;176.13;;
20067;SDS011;10194;50.824;7.134;2023-05-19T00:36:07;195.53;;;175.63;;
20067;SDS011;10194;50.824;7.134;2023-05-19T00:38:33;197.27;;;177.27;;
20067;SDS011;10194;50.824;7.134;2023-05-19T00:41:01;197.20;;;177.27;;
20067;SDS011;10194;50.824;7.134;2023-05-19T00:43:28;196.37;;;176.17;;
20067;SDS011;10194;50.824;7.134;2023-05-19T00:45:54;198.67;;;178.60;;
20067;SDS011;10194;50.824;7.134;2023-05-19T00:48:21;201.67;;;180.70;;
20067;SDS011;10194;50.824;7.134;2023-05-19T00:50:49;204.53;;;183.70;;
20067;SDS011;10194;50.824;7.134;2023-05-19T00:53:21;203.83;;;183.23;;
20067;SDS011;10194;50.824;7.134;2023-05-19T00:55:48;202.67;;;182.27;;
20067;SDS011;10194;50.824;7.134;2023-05-19T00:58:15;201.37;;;180.73;;
20067;SDS011;10194;50.824;7.134;2023-05-19T01:00:42;207.70;;;186.43;;
20067;SDS011;10194;50.824;7.134;2023-05-19T01:03:09;203.30;;;182.53;;
20067;SDS011;10194;50.824;7.134;2023-05-19T01:05:37;203.10;;;182.57;;
20067;SDS011;10194;50.824;7.134;2023-05-19T01:08:17;200.50;;;179.93;;
20067;SDS011;10194;50.824;7.134;2023-05-19T01:10:44;200.90;;;180.30;;
20067;SDS011;10194;50.824;7.134;2023-05-19T01:13:09;200.60;;;179.90;;
20067;SDS011;10194;50.824;7.134;2023-05-19T01:15:41;201.83;;;180.83;;
20067;SDS011;10194;50.824;7.134;2023-05-19T01:18:23;193.70;;;173.07;;
20067;SDS011;10194;50.824;7.134;2023-05-19T01:21:18;190.90;;;170.53;;
20067;SDS011;10194;50.824;7.134;2023-05-19T01:30:03;187.60;;;161.93;;
20067;SDS011;10194;50.824;7.134;2023-05-19T01:32:47;187.87;;;156.53;;
20067;SDS011;10194;50.824;7.134;2023-05-19T01:35:17;184.13;;;159.07;;
20067;SDS011;10194;50.824;7.134;2023-05-19T01:37:45;184.90;;;164.30;;
20067;SDS011;10194;50.824;7.134;2023-05-19T01:40:12;184.10;;;160.53;;
20067;SDS011;10194;50.824;7.134;2023-05-19T01:42:38;185.13;;;162.17;;
20067;SDS011;10194;50.824;7.134;2023-05-19T01:45:05;186.13;;;160.23;;
20067;SDS011;10194;50.824;7.134;2023-05-19T01:47:35;185.63;;;161.97;;
20067;SDS011;10194;50.824;7.134;2023-05-19T01:50:06;185.40;;;158.53;;
20067;SDS011;10194;50.824;7.134;2023-05-19T01:52:32;183.87;;;157.20;;
20067;SDS011;10194;50.824;7.134;2023-05-19T01:54:58;187.13;;;157.03;;
20067;SDS011;10194;50.824;7.134;2023-05-19T02:00:37;182.83;;;145.93;;
20067;SDS011;10194;50.824;7.134;2023-05-19T02:09:01;182.23;;;142.67;;
20067;SDS011;10194;50.824;7.134;2023-05-19T02:11:36;190.70;;;145.53;;
20067;SDS011;10194;50.824;7.134;2023-05-19T02:14:19;187.27;;;145.63;;
20067;SDS011;10194;50.824;7.134;2023-05-19T02:16:54;187.37;;;142.83;;
20067;SDS011;10194;50.824;7.134;2023-05-19T02:19:28;190.57;;;146.60;;
20067;SDS011;10194;50.824;7.134;2023-05-19T02:21:57;185.70;;;145.23;;
20067;SDS011;10194;50.824;7.134;2023-05-19T02:24:23;187.40;;;142.27;;
20067;SDS011;10194;50.824;7.134;2023-05-19T02:26:49;183.30;;;144.73;;
20067;SDS011;10194;50.824;7.134;2023-05-19T02:29:16;187.47;;;141.87;;
20067;SDS011;10194;50.824;7.134;2023-05-19T02:31:42;184.10;;;142.17;;
20067;SDS011;10194;50.824;7.134;2023-05-19T02:34:07;182.13;;;141.13;;
20067;SDS011;10194;50.824;7.134;2023-05-19T02:36:33;182.00;;;142.63;;
20067;SDS011;10194;50.824;7.134;2023-05-19T02:39:02;182.77;;;143.73;;
20067;SDS011;10194;50.824;7.134;2023-05-19T02:41:29;188.97;;;144.73;;
20067;SDS011;10194;50.824;7.134;2023-05-19T02:43:55;187.97;;;142.40;;
20067;SDS011;10194;50.824;7.134;2023-05-19T02:46:21;186.23;;;144.87;;
20067;SDS011;10194;50.824;7.134;2023-05-19T02:48:48;181.17;;;143.27;;
20067;SDS011;10194;50.824;7.134;2023-05-19T02:51:15;184.40;;;139.93;;
20067;SDS011;10194;50.824;7.134;2023-05-19T02:53:40;184.50;;;144.37;;
20067;SDS011;10194;50.824;7.134;2023-05-19T02:56:06;188.73;;;145.10;;
20067;SDS011;10194;50.824;7.134;2023-05-19T02:58:32;193.27;;;149.27;;
20067;SDS011;10194;50.824;7.134;2023-05-19T03:00:57;188.90;;;147.33;;
20067;SDS011;10194;50.824;7.134;2023-05-19T03:03:23;185.57;;;146.57;;
20067;SDS011;10194;50.824;7.134;2023-05-19T03:05:49;187.83;;;147.73;;
20067;SDS011;10194;50.824;7.134;2023-05-19T03:08:15;187.27;;;148.57;;
20067;SDS011;10194;50.824;7.134;2023-05-19T03:10:41;191.83;;;146.97;;
20067;SDS011;10194;50.824;7.134;2023-05-19T03:13:07;188.50;;;146.47;;
20067;SDS011;10194;50.824;7.134;2023-05-19T03:15:32;186.30;;;150.03;;
20067;SDS011;10194;50.824;7.134;2023-05-19T03:17:59;189.93;;;150.90;;
20067;SDS011;10194;50.824;7.134;2023-05-19T03:20:24;185.37;;;150.37;;
20067;SDS011;10194;50.824;7.134;2023-05-19T03:22:50;193.33;;;149.63;;
20067;SDS011;10194;50.824;7.134;2023-05-19T03:25:16;187.23;;;151.57;;
20067;SDS011;10194;50.824;7.134;2023-05-19T03:27:42;186.47;;;151.80;;
20067;SDS011;10194;50.824;7.134;2023-05-19T03:30:07;187.90;;;156.97;;
20067;SDS011;10194;50.824;7.134;2023-05-19T03:32:34;190.80;;;152.30;;
20067;SDS011;10194;50.824;7.134;2023-05-19T03:35:02;186.50;;;150.93;;
20067;SDS011;10194;50.824;7.134;2023-05-19T03:37:29;190.23;;;154.57;;
20067;SDS011;10194;50.824;7.134;2023-05-19T03:39:56;187.93;;;151.73;;
20067;SDS011;10194;50.824;7.134;2023-05-19T03:42:23;184.77;;;149.63;;
20067;SDS011;10194;50.824;7.134;2023-05-19T03:44:49;187.70;;;151.33;;
20067;SDS011;10194;50.824;7.134;2023-05-19T03:47:14;185.33;;;153.40;;
20067;SDS011;10194;50.824;7.134;2023-05-19T03:49:40;188.47;;;159.40;;
20067;SDS011;10194;50.824;7.134;2023-05-19T03:52:06;192.83;;;165.60;;
20067;SDS011;10194;50.824;7.134;2023-05-19T03:54:31;190.43;;;149.97;;
20067;SDS011;10194;50.824;7.134;2023-05-19T03:56:57;187.03;;;153.30;;
20067;SDS011;10194;50.824;7.134;2023-05-19T03:59:23;199.57;;;162.03;;
20067;SDS011;10194;50.824;7.134;2023-05-19T04:01:49;186.77;;;162.70;;
20067;SDS011;10194;50.824;7.134;2023-05-19T04:04:16;193.27;;;166.67;;
20067;SDS011;10194;50.824;7.134;2023-05-19T04:06:42;191.23;;;169.37;;
20067;SDS011;10194;50.824;7.134;2023-05-19T04:09:12;191.67;;;166.33;;
20067;SDS011;10194;50.824;7.134;2023-05-19T04:11:39;192.13;;;167.00;;
20067;SDS011;10194;50.824;7.134;2023-05-19T04:14:06;190.93;;;166.77;;
20067;SDS011;10194;50.824;7.134;2023-05-19T04:16:32;190.67;;;160.40;;
20067;SDS011;10194;50.824;7.134;2023-05-19T04:18:59;190.60;;;163.07;;
20067;SDS011;10194;50.824;7.134;2023-05-19T04:21:25;190.77;;;159.03;;
20067;SDS011;10194;50.824;7.134;2023-05-19T04:23:51;192.33;;;164.53;;
20067;SDS011;10194;50.824;7.134;2023-05-19T04:26:17;189.70;;;159.47;;
20067;SDS011;10194;50.824;7.134;2023-05-19T04:28:45;188.30;;;160.60;;
20067;SDS011;10194;50.824;7.134;2023-05-19T04:31:12;192.60;;;163.37;;
20067;SDS011;10194;50.824;7.134;2023-05-19T04:33:39;193.70;;;157.03;;
20067;SDS011;10194;50.824;7.134;2023-05-19T04:36:05;191.20;;;161.40;;
20067;SDS011;10194;50.824;7.134;2023-05-19T04:38:34;193.80;;;163.27;;
20067;SDS011;10194;50.824;7.134;2023-05-19T04:41:01;188.70;;;158.33;;
20067;SDS011;10194;50.824;7.134;2023-05-19T04:43:28;192.47;;;162.57;;
20067;SDS011;10194;50.824;7.134;2023-05-19T04:45:54;191.10;;;159.53;;
20067;SDS011;10194;50.824;7.134;2023-05-19T04:48:22;198.63;;;152.33;;
20067;SDS011;10194;50.824;7.134;2023-05-19T04:50:48;190.00;;;156.27;;
20067;SDS011;10194;50.824;7.134;2023-05-19T04:53:15;194.30;;;163.70;;
20067;SDS011;10194;50.824;7.134;2023-05-19T04:55:42;191.17;;;155.67;;
20067;SDS011;10194;50.824;7.134;2023-05-19T04:58:08;194.43;;;153.90;;
20067;SDS011;10194;50.824;7.134;2023-05-19T05:00:35;191.53;;;152.67;;
20067;SDS011;10194;50.824;7.134;2023-05-19T05:03:01;191.43;;;153.67;;
20067;SDS011;10194;50.824;7.134;2023-05-19T05:05:30;198.23;;;148.07;;
20067;SDS011;10194;50.824;7.134;2023-05-19T05:07:57;192.10;;;150.20;;
20067;SDS011;10194;50.824;7.134;2023-05-19T05:10:23;193.23;;;148.63;;
20067;SDS011;10194;50.824;7.134;2023-05-19T05:12:49;193.70;;;154.73;;
20067;SDS011;10194;50.824;7.134;2023-05-19T05:15:15;196.87;;;166.10;;
20067;SDS011;10194;50.824;7.134;2023-05-19T05:17:42;200.67;;;174.50;;
20067;SDS011;10194;50.824;7.134;2023-05-19T05:20:08;200.80;;;173.93;;
20067;SDS011;10194;50.824;7.134;2023-05-19T05:22:36;203.30;;;181.73;;
20067;SDS011;10194;50.824;7.134;2023-05-19T05:25:03;210.63;;;188.43;;
20067;SDS011;10194;50.824;7.134;2023-05-19T05:27:29;211.03;;;188.47;;
20067;SDS011;10194;50.824;7.134;2023-05-19T05:29:56;216.03;;;193.73;;
20067;SDS011;10194;50.824;7.134;2023-05-19T05:32:22;223.00;;;200.50;;
20067;SDS011;10194;50.824;7.134;2023-05-19T05:34:48;225.23;;;203.30;;
20067;SDS011;10194;50.824;7.134;2023-05-19T05:37:14;228.83;;;206.23;;
20067;SDS011;10194;50.824;7.134;2023-05-19T05:39:40;223.83;;;201.33;;
20067;SDS011;10194;50.824;7.134;2023-05-19T05:42:06;227.90;;;204.80;;
20067;SDS011;10194;50.824;7.134;2023-05-19T05:44:34;225.77;;;203.70;;
20067;SDS011;10194;50.824;7.134;2023-05-19T05:47:01;219.27;;;197.57;;
20067;SDS011;10194;50.824;7.134;2023-05-19T05:49:27;191.90;;;170.37;;
20067;SDS011;10194;50.824;7.134;2023-05-19T05:51:54;177.13;;;146.27;;
20067;SDS011;10194;50.824;7.134;2023-05-19T05:54:20;175.60;;;136.50;;
20067;SDS011;10194;50.824;7.134;2023-05-19T05:56:47;170.87;;;123.73;;
20067;SDS011;10194;50.824;7.134;2023-05-19T05:59:13;159.07;;;105.80;;
20067;SDS011;10194;50.824;7.134;2023-05-19T06:01:39;151.40;;;94.03;;
20067;SDS011;10194;50.824;7.134;2023-05-19T06:04:07;145.87;;;84.73;;
20067;SDS011;10194;50.824;7.134;2023-05-19T06:06:34;141.27;;;77.90;;
20067;SDS011;10194;50.824;7.134;2023-05-19T06:09:03;140.30;;;76.10;;
20067;SDS011;10194;50.824;7.134;2023-05-19T06:11:29;143.43;;;74.93;;
20067;SDS011;10194;50.824;7.134;2023-05-19T06:13:55;142.73;;;75.53;;
20067;SDS011;10194;50.824;7.134;2023-05-19T06:16:22;137.60;;;70.73;;
20067;SDS011;10194;50.824;7.134;2023-05-19T06:18:47;134.93;;;69.30;;
20067;SDS011;10194;50.824;7.134;2023-05-19T06:21:13;132.10;;;67.30;;
20067;SDS011;10194;50.824;7.134;2023-05-19T06:23:39;133.33;;;67.60;;
20067;SDS011;10194;50.824;7.134;2023-05-19T06:26:05;132.13;;;66.57;;
20067;SDS011;10194;50.824;7.134;2023-05-19T06:28:31;131.80;;;66.97;;
20067;SDS011;10194;50.824;7.134;2023-05-19T06:30:58;134.17;;;66.77;;
20067;SDS011;10194;50.824;7.134;2023-05-19T06:33:24;132.77;;;67.47;;
20067;SDS011;10194;50.824;7.134;2023-05-19T06:35:50;134.13;;;68.23;;
20067;SDS011;10194;50.824;7.134;2023-05-19T06:38:16;136.77;;;70.67;;
20067;SDS011;10194;50.824;7.134;2023-05-19T06:40:42;136.17;;;72.17;;
20067;SDS011;10194;50.824;7.134;2023-05-19T06:43:08;135.43;;;73.70;;
20067;SDS011;10194;50.824;7.134;2023-05-19T06:45:34;136.37;;;74.53;;
20067;SDS011;10194;50.824;7.134;2023-05-19T06:47:59;139.37;;;78.20;;
20067;SDS011;10194;50.824;7.134;2023-05-19T06:50:25;143.33;;;83.80;;
20067;SDS011;10194;50.824;7.134;2023-05-19T06:52:51;146.27;;;88.40;;
20067;SDS011;10194;50.824;7.134;2023-05-19T06:55:17;149.73;;;93.77;;
20067;SDS011;10194;50.824;7.134;2023-05-19T06:57:43;158.60;;;104.43;;
20067;SDS011;10194;50.824;7.134;2023-05-19T07:00:09;153.20;;;102.83;;
20067;SDS011;10194;50.824;7.134;2023-05-19T07:02:36;151.70;;;104.47;;
20067;SDS011;10194;50.824;7.134;2023-05-19T07:05:03;154.30;;;108.77;;
20067;SDS011;10194;50.824;7.134;2023-05-19T07:07:30;153.37;;;112.23;;
20067;SDS011;10194;50.824;7.134;2023-05-19T07:09:56;153.03;;;112.47;;
20067;SDS011;10194;50.824;7.134;2023-05-19T07:12:21;159.80;;;116.13;;
20067;SDS011;10194;50.824;7.134;2023-05-19T07:14:47;153.30;;;116.87;;
20067;SDS011;10194;50.824;7.134;2023-05-19T07:17:13;157.17;;;118.87;;
20067;SDS011;10194;50.824;7.134;2023-05-19T07:19:39;152.17;;;115.67;;
20067;SDS011;10194;50.824;7.134;2023-05-19T07:22:04;151.10;;;109.57;;
20067;SDS011;10194;50.824;7.134;2023-05-19T07:24:30;150.23;;;108.73;;
20067;SDS011;10194;50.824;7.134;2023-05-19T07:26:56;151.80;;;108.07;;
20067;SDS011;10194;50.824;7.134;2023-05-19T07:29:22;164.53;;;112.50;;
20067;SDS011;10194;50.824;7.134;2023-05-19T07:31:48;156.00;;;108.43;;
20067;SDS011;10194;50.824;7.134;2023-05-19T07:34:18;150.17;;;104.33;;
20067;SDS011;10194;50.824;7.134;2023-05-19T07:36:44;150.37;;;105.87;;
20067;SDS011;10194;50.824;7.134;2023-05-19T07:39:10;152.57;;;104.77;;
20067;SDS011;10194;50.824;7.134;2023-05-19T07:41:36;153.00;;;102.70;;
20067;SDS011;10194;50.824;7.134;2023-05-19T07:44:02;150.63;;;97.97;;
20067;SDS011;10194;50.824;7.134;2023-05-19T07:46:31;151.20;;;96.07;;
20067;SDS011;10194;50.824;7.134;2023-05-19T07:48:58;148.83;;;90.17;;
20067;SDS011;10194;50.824;7.134;2023-05-19T07:51:24;146.83;;;87.57;;
20067;SDS011;10194;50.824;7.134;2023-05-19T07:53:50;145.47;;;84.97;;
20067;SDS011;10194;50.824;7.134;2023-05-19T07:56:16;144.80;;;81.43;;
20067;SDS011;10194;50.824;7.134;2023-05-19T07:58:43;145.13;;;80.57;;
20067;SDS011;10194;50.824;7.134;2023-05-19T08:01:08;143.03;;;79.53;;
20067;SDS011;10194;50.824;7.134;2023-05-19T08:03:34;143.33;;;77.53;;
20067;SDS011;10194;50.824;7.134;2023-05-19T08:06:00;143.07;;;78.10;;
20067;SDS011;10194;50.824;7.134;2023-05-19T08:08:26;141.90;;;77.23;;
20067;SDS011;10194;50.824;7.134;2023-05-19T08:10:52;142.20;;;77.97;;
20067;SDS011;10194;50.824;7.134;2023-05-19T08:13:17;145.77;;;77.80;;
20067;SDS011;10194;50.824;7.134;2023-05-19T08:15:43;140.20;;;75.97;;
20067;SDS011;10194;50.824;7.134;2023-05-19T08:18:09;142.47;;;77.40;;
20067;SDS011;10194;50.824;7.134;2023-05-19T08:20:35;141.17;;;76.83;;
20067;SDS011;10194;50.824;7.134;2023-05-19T08:23:01;139.97;;;76.53;;
20067;SDS011;10194;50.824;7.134;2023-05-19T08:25:27;140.93;;;76.73;;
20067;SDS011;10194;50.824;7.134;2023-05-19T08:27:53;140.57;;;76.37;;
20067;SDS011;10194;50.824;7.134;2023-05-19T08:30:18;139.47;;;76.23;;
20067;SDS011;10194;50.824;7.134;2023-05-19T08:32:44;139.60;;;76.67;;
20067;SDS011;10194;50.824;7.134;2023-05-19T08:35:10;143.40;;;76.87;;
20067;SDS011;10194;50.824;7.134;2023-05-19T08:37:36;141.73;;;77.33;;
20067;SDS011;10194;50.824;7.134;2023-05-19T08:40:03;141.73;;;77.13;;
20067;SDS011;10194;50.824;7.134;2023-05-19T08:42:29;143.43;;;78.00;;
20067;SDS011;10194;50.824;7.134;2023-05-19T08:44:57;139.43;;;77.57;;
20067;SDS011;10194;50.824;7.134;2023-05-19T08:47:24;148.47;;;80.00;;
20067;SDS011;10194;50.824;7.134;2023-05-19T08:49:52;141.03;;;78.07;;
20067;SDS011;10194;50.824;7.134;2023-05-19T08:55:04;146.73;;;81.63;;
20067;SDS011;10194;50.824;7.134;2023-05-19T08:57:35;148.53;;;80.47;;
20067;SDS011;10194;50.824;7.134;2023-05-19T09:00:03;144.13;;;79.00;;
20067;SDS011;10194;50.824;7.134;2023-05-19T09:02:35;142.50;;;77.80;;
20067;SDS011;10194;50.824;7.134;2023-05-19T09:05:03;146.03;;;80.20;;
20067;SDS011;10194;50.824;7.134;2023-05-19T09:07:30;154.80;;;82.60;;
20067;SDS011;10194;50.824;7.134;2023-05-19T09:09:59;144.57;;;81.57;;
20067;SDS011;10194;50.824;7.134;2023-05-19T09:12:25;146.90;;;82.03;;
20067;SDS011;10194;50.824;7.134;2023-05-19T09:14:52;146.30;;;80.67;;
20067;SDS011;10194;50.824;7.134;2023-05-19T09:17:18;142.73;;;81.00;;
20067;SDS011;10194;50.824;7.134;2023-05-19T09:19:44;143.97;;;81.17;;
20067;SDS011;10194;50.824;7.134;2023-05-19T09:22:16;143.50;;;83.07;;
20067;SDS011;10194;50.824;7.134;2023-05-19T09:24:45;148.13;;;83.47;;
20067;SDS011;10194;50.824;7.134;2023-05-19T09:27:20;145.30;;;85.37;;
20067;SDS011;10194;50.824;7.134;2023-05-19T09:29:49;145.07;;;82.53;;
20067;SDS011;10194;50.824;7.134;2023-05-19T09:32:24;141.70;;;82.87;;
20067;SDS011;10194;50.824;7.134;2023-05-19T09:34:52;144.27;;;81.70;;
20067;SDS011;10194;50.824;7.134;2023-05-19T09:37:21;142.17;;;80.23;;
20067;SDS011;10194;50.824;7.134;2023-05-19T09:39:48;146.33;;;82.70;;
20067;SDS011;10194;50.824;7.134;2023-05-19T09:42:22;141.47;;;80.67;;
20067;SDS011;10194;50.824;7.134;2023-05-19T09:45:02;140.63;;;79.23;;
20067;SDS011;10194;50.824;7.134;2023-05-19T09:47:36;143.43;;;78.40;;
20067;SDS011;10194;50.824;7.134;2023-05-19T09:50:08;147.23;;;79.33;;
20067;SDS011;10194;50.824;7.134;2023-05-19T09:52:36;144.60;;;78.53;;
20067;SDS011;10194;50.824;7.134;2023-05-19T09:55:03;142.80;;;79.87;;
20067;SDS011;10194;50.824;7.134;2023-05-19T09:57:34;152.47;;;83.37;;
20067;SDS011;10194;50.824;7.134;2023-05-19T10:00:04;143.10;;;80.70;;
20067;SDS011;10194;50.824;7.134;2023-05-19T10:02:45;141.57;;;78.90;;
20067;SDS011;10194;50.824;7.134;2023-05-19T10:05:13;139.17;;;77.87;;
20067;SDS011;10194;50.824;7.134;2023-05-19T10:07:53;143.10;;;77.43;;
20067;SDS011;10194;50.824;7.134;2023-05-19T10:10:20;141.07;;;78.10;;
20067;SDS011;10194;50.824;7.134;2023-05-19T10:12:47;140.33;;;76.63;;
20067;SDS011;10194;50.824;7.134;2023-05-19T10:15:17;139.97;;;75.93;;
20067;SDS011;10194;50.824;7.134;2023-05-19T10:17:44;141.50;;;78.10;;
20067;SDS011;10194;50.824;7.134;2023-05-19T10:20:15;139.33;;;75.77;;
20067;SDS011;10194;50.824;7.134;2023-05-19T10:22:42;145.63;;;78.60;;
20067;SDS011;10194;50.824;7.134;2023-05-19T10:25:10;148.13;;;80.63;;
20067;SDS011;10194;50.824;7.134;2023-05-19T10:28:01;140.70;;;76.50;;
20067;SDS011;10194;50.824;7.134;2023-05-19T10:30:43;137.90;;;74.20;;
20067;SDS011;10194;50.824;7.134;2023-05-19T10:33:14;136.83;;;74.23;;
20067;SDS011;10194;50.824;7.134;2023-05-19T10:38:52;136.67;;;72.43;;
20067;SDS011;10194;50.824;7.134;2023-05-19T10:44:20;135.57;;;71.60;;
20067;SDS011;10194;50.824;7.134;2023-05-19T10:47:26;139.00;;;73.07;;
20067;SDS011;10194;50.824;7.134;2023-05-19T10:49:54;139.47;;;73.27;;
20067;SDS011;10194;50.824;7.134;2023-05-19T10:52:21;140.70;;;75.33;;
20067;SDS011;10194;50.824;7.134;2023-05-19T10:54:53;140.57;;;74.83;;
20067;SDS011;10194;50.824;7.134;2023-05-19T10:57:26;140.50;;;75.20;;
20067;SDS011;10194;50.824;7.134;2023-05-19T10:59:53;138.87;;;75.30;;
20067;SDS011;10194;50.824;7.134;2023-05-19T11:02:39;149.17;;;76.53;;
20067;SDS011;10194;50.824;7.134;2023-05-19T11:07:58;142.57;;;75.03;;
20067;SDS011;10194;50.824;7.134;2023-05-19T11:10:31;143.60;;;76.23;;
20067;SDS011;10194;50.824;7.134;2023-05-19T11:12:58;143.40;;;75.97;;
20067;SDS011;10194;50.824;7.134;2023-05-19T11:15:25;139.20;;;75.30;;
20067;SDS011;10194;50.824;7.134;2023-05-19T11:17:51;140.47;;;74.43;;
20067;SDS011;10194;50.824;7.134;2023-05-19T11:20:19;138.57;;;74.43;;
20067;SDS011;10194;50.824;7.134;2023-05-19T11:23:06;138.43;;;74.27;;
20067;SDS011;10194;50.824;7.134;2023-05-19T11:28:15;143.73;;;76.73;;
20067;SDS011;10194;50.824;7.134;2023-05-19T11:30:43;141.93;;;76.97;;
20067;SDS011;10194;50.824;7.134;2023-05-19T11:33:14;144.93;;;77.67;;
20067;SDS011;10194;50.824;7.134;2023-05-19T11:35:44;139.10;;;75.47;;
20067;SDS011;10194;50.824;7.134;2023-05-19T11:38:14;142.80;;;75.90;;
20067;SDS011;10194;50.824;7.134;2023-05-19T11:40:42;145.87;;;77.40;;
20067;SDS011;10194;50.824;7.134;2023-05-19T11:43:09;146.77;;;77.60;;
20067;SDS011;10194;50.824;7.134;2023-05-19T11:45:34;140.23;;;76.20;;
20067;SDS011;10194;50.824;7.134;2023-05-19T11:48:00;137.93;;;75.03;;
20067;SDS011;10194;50.824;7.134;2023-05-19T11:50:30;148.30;;;79.20;;
20067;SDS011;10194;50.824;7.134;2023-05-19T11:52:58;140.00;;;76.73;;
20067;SDS011;10194;50.824;7.134;2023-05-19T11:55:25;139.97;;;77.67;;
20067;SDS011;10194;50.824;7.134;2023-05-19T11:58:00;138.93;;;78.40;;
20067;SDS011;10194;50.824;7.134;2023-05-19T12:00:28;140.70;;;77.80;;
20067;SDS011;10194;50.824;7.134;2023-05-19T12:03:01;138.97;;;78.07;;
20067;SDS011;10194;50.824;7.134;2023-05-19T12:05:27;146.33;;;82.57;;
20067;SDS011;10194;50.824;7.134;2023-05-19T12:08:15;143.07;;;77.80;;
20067;SDS011;10194;50.824;7.134;2023-05-19T12:10:42;142.63;;;77.83;;
20067;SDS011;10194;50.824;7.134;2023-05-19T12:13:08;138.53;;;75.90;;
20067;SDS011;10194;50.824;7.134;2023-05-19T12:15:34;138.93;;;75.90;;
20067;SDS011;10194;50.824;7.134;2023-05-19T12:18:00;138.50;;;76.27;;
20067;SDS011;10194;50.824;7.134;2023-05-19T12:20:27;148.53;;;82.07;;
20067;SDS011;10194;50.824;7.134;2023-05-19T12:22:59;137.87;;;76.97;;
20067;SDS011;10194;50.824;7.134;2023-05-19T12:25:26;141.30;;;78.83;;
20067;SDS011;10194;50.824;7.134;2023-05-19T12:27:57;137.23;;;75.00;;
20067;SDS011;10194;50.824;7.134;2023-05-19T12:30:29;141.27;;;77.20;;
20067;SDS011;10194;50.824;7.134;2023-05-19T12:32:56;136.20;;;75.47;;
20067;SDS011;10194;50.824;7.134;2023-05-19T12:35:25;137.13;;;75.33;;
20067;SDS011;10194;50.824;7.134;2023-05-19T12:37:54;137.80;;;75.17;;
20067;SDS011;10194;50.824;7.134;2023-05-19T12:40:20;140.30;;;77.93;;
20067;SDS011;10194;50.824;7.134;2023-05-19T12:42:46;137.53;;;75.87;;
20067;SDS011;10194;50.824;7.134;2023-05-19T12:45:18;139.60;;;76.50;;
20067;SDS011;10194;50.824;7.134;2023-05-19T12:47:47;136.30;;;75.67;;
20067;SDS011;10194;50.824;7.134;2023-05-19T12:50:13;141.10;;;75.90;;
20067;SDS011;10194;50.824;7.134;2023-05-19T12:52:44;141.17;;;75.30;;
20067;SDS011;10194;50.824;7.134;2023-05-19T12:55:12;138.07;;;76.00;;
20067;SDS011;10194;50.824;7.134;2023-05-19T12:57:41;137.97;;;74.70;;
20067;SDS011;10194;50.824;7.134;2023-05-19T13:05:25;139.50;;;76.20;;
20067;SDS011;10194;50.824;7.134;2023-05-19T13:08:06;140.00;;;76.20;;
20067;SDS011;10194;50.824;7.134;2023-05-19T13:10:33;139.07;;;76.30;;
20067;SDS011;10194;50.824;7.134;2023-05-19T13:13:00;147.23;;;81.10;;
20067;SDS011;10194;50.824;7.134;2023-05-19T13:15:28;138.97;;;77.57;;
20067;SDS011;10194;50.824;7.134;2023-05-19T13:17:58;140.90;;;77.63;;
20067;SDS011;10194;50.824;7.134;2023-05-19T13:20:27;148.50;;;83.50;;
20067;SDS011;10194;50.824;7.134;2023-05-19T13:22:53;139.87;;;77.30;;
20067;SDS011;10194;50.824;7.134;2023-05-19T13:25:18;142.70;;;78.27;;
20067;SDS011;10194;50.824;7.134;2023-05-19T13:27:45;140.63;;;77.13;;
20067;SDS011;10194;50.824;7.134;2023-05-19T13:30:12;138.47;;;77.23;;
20067;SDS011;10194;50.824;7.134;2023-05-19T13:32:42;139.70;;;76.70;;
20067;SDS011;10194;50.824;7.134;2023-05-19T13:35:08;136.10;;;75.73;;
20067;SDS011;10194;50.824;7.134;2023-05-19T13:37:34;136.93;;;76.07;;
20067;SDS011;10194;50.824;7.134;2023-05-19T13:40:01;137.50;;;75.97;;
20067;SDS011;10194;50.824;7.134;2023-05-19T13:42:27;139.57;;;76.37;;
20067;SDS011;10194;50.824;7.134;2023-05-19T13:44:56;137.57;;;76.17;;
20067;SDS011;10194;50.824;7.134;2023-05-19T13:47:25;136.57;;;75.67;;
20067;SDS011;10194;50.824;7.134;2023-05-19T13:49:51;137.43;;;75.63;;
20067;SDS011;10194;50.824;7.134;2023-05-19T13:52:17;140.30;;;77.03;;
20067;SDS011;10194;50.824;7.134;2023-05-19T13:54:46;138.93;;;77.13;;
20067;SDS011;10194;50.824;7.134;2023-05-19T13:57:13;138.70;;;77.23;;
20067;SDS011;10194;50.824;7.134;2023-05-19T13:59:40;140.10;;;78.27;;
20067;SDS011;10194;50.824;7.134;2023-05-19T14:02:06;138.27;;;78.17;;
20067;SDS011;10194;50.824;7.134;2023-05-19T14:04:35;142.20;;;79.63;;
20067;SDS011;10194;50.824;7.134;2023-05-19T14:07:02;139.30;;;79.00;;
20067;SDS011;10194;50.824;7.134;2023-05-19T14:09:33;146.77;;;80.80;;
20067;SDS011;10194;50.824;7.134;2023-05-19T14:11:59;138.83;;;78.70;;
20067;SDS011;10194;50.824;7.134;2023-05-19T14:14:25;140.13;;;78.57;;
20067;SDS011;10194;50.824;7.134;2023-05-19T14:16:51;138.93;;;77.53;;
20067;SDS011;10194;50.824;7.134;2023-05-19T14:19:16;143.03;;;78.67;;
20067;SDS011;10194;50.824;7.134;2023-05-19T14:21:42;140.23;;;77.73;;
20067;SDS011;10194;50.824;7.134;2023-05-19T14:24:08;144.10;;;82.57;;
20067;SDS011;10194;50.824;7.134;2023-05-19T14:26:34;139.83;;;78.07;;
20067;SDS011;10194;50.824;7.134;2023-05-19T14:29:00;139.30;;;77.43;;
20067;SDS011;10194;50.824;7.134;2023-05-19T14:31:26;139.50;;;78.00;;
20067;SDS011;10194;50.824;7.134;2023-05-19T14:33:51;139.23;;;77.37;;
20067;SDS011;10194;50.824;7.134;2023-05-19T14:36:17;140.40;;;77.47;;
20067;SDS011;10194;50.824;7.134;2023-05-19T14:38:43;138.97;;;77.00;;
20067;SDS011;10194;50.824;7.134;2023-05-19T14:41:09;139.40;;;78.43;;
20067;SDS011;10194;50.824;7.134;2023-05-19T14:43:35;141.87;;;79.23;;